sensor_id;sensor_type;location;lat;lon;timestamp;temperature;humidity
57108;DHT22;42987;52.916;6.542;2022-12-18T00:02:01;-3.20;99.90
57108;DHT22;42987;52.916;6.542;2022-12-18T00:04:27;-3.20;99.90
57108;DHT22;42987;52.916;6.542;2022-12-18T00:06:56;-3.20;99.90
57108;DHT22;42987;52.916;6.542;2022-12-18T00:09:22;-3.20;99.90
57108;DHT22;42987;52.916;6.542;2022-12-18T00:11:48;-3.10;99.90
57108;DHT22;42987;52.916;6.542;2022-12-18T00:14:14;-3.20;99.90
57108;DHT22;42987;52.916;6.542;2022-12-18T00:16:43;-3.20;99.90
57108;DHT22;42987;52.916;6.542;2022-12-18T00:19:10;-3.20;99.90
57108;DHT22;42987;52.916;6.542;2022-12-18T00:21:45;-3.20;99.90
57108;DHT22;42987;52.916;6.542;2022-12-18T00:24:11;-3.20;99.90
57108;DHT22;42987;52.916;6.542;2022-12-18T00:26:38;-3.20;99.90
57108;DHT22;42987;52.916;6.542;2022-12-18T00:29:11;-3.20;99.90
57108;DHT22;42987;52.916;6.542;2022-12-18T00:31:39;-3.30;99.90
57108;DHT22;42987;52.916;6.542;2022-12-18T00:34:05;-3.30;99.90
57108;DHT22;42987;52.916;6.542;2022-12-18T00:36:33;-3.30;99.90
57108;DHT22;42987;52.916;6.542;2022-12-18T00:39:03;-3.30;99.90
57108;DHT22;42987;52.916;6.542;2022-12-18T00:41:29;-3.30;99.90
57108;DHT22;42987;52.916;6.542;2022-12-18T00:44:16;-3.40;99.90
57108;DHT22;42987;52.916;6.542;2022-12-18T00:46:43;-3.40;99.90
57108;DHT22;42987;52.916;6.542;2022-12-18T00:49:13;-3.40;99.90
57108;DHT22;42987;52.916;6.542;2022-12-18T00:51:39;-3.40;99.90
57108;DHT22;42987;52.916;6.542;2022-12-18T00:54:05;-3.40;99.90
57108;DHT22;42987;52.916;6.542;2022-12-18T00:56:31;-3.40;99.90
57108;DHT22;42987;52.916;6.542;2022-12-18T00:58:57;-3.40;99.90
57108;DHT22;42987;52.916;6.542;2022-12-18T01:01:23;-3.50;99.90
57108;DHT22;42987;52.916;6.542;2022-12-18T01:03:49;-3.50;99.90
57108;DHT22;42987;52.916;6.542;2022-12-18T01:06:15;-3.50;99.90
57108;DHT22;42987;52.916;6.542;2022-12-18T01:08:42;-3.50;99.90
57108;DHT22;42987;52.916;6.542;2022-12-18T01:11:15;-3.50;99.90
57108;DHT22;42987;52.916;6.542;2022-12-18T01:13:42;-3.60;99.90
57108;DHT22;42987;52.916;6.542;2022-12-18T01:16:08;-3.60;99.90
57108;DHT22;42987;52.916;6.542;2022-12-18T01:18:34;-3.60;99.90
57108;DHT22;42987;52.916;6.542;2022-12-18T01:21:00;-3.60;99.90
57108;DHT22;42987;52.916;6.542;2022-12-18T01:23:30;-3.50;99.90
57108;DHT22;42987;52.916;6.542;2022-12-18T01:25:56;-3.60;99.90
57108;DHT22;42987;52.916;6.542;2022-12-18T01:28:22;-3.60;99.90
57108;DHT22;42987;52.916;6.542;2022-12-18T01:30:47;-3.60;99.90
57108;DHT22;42987;52.916;6.542;2022-12-18T01:33:13;-3.60;99.90
57108;DHT22;42987;52.916;6.542;2022-12-18T01:35:45;-3.60;99.90
57108;DHT22;42987;52.916;6.542;2022-12-18T01:38:11;-3.70;99.90
57108;DHT22;42987;52.916;6.542;2022-12-18T01:40:37;-3.70;99.90
57108;DHT22;42987;52.916;6.542;2022-12-18T01:43:03;-3.70;99.90
57108;DHT22;42987;52.916;6.542;2022-12-18T01:45:30;-3.80;99.90
57108;DHT22;42987;52.916;6.542;2022-12-18T01:48:03;-3.70;99.90
57108;DHT22;42987;52.916;6.542;2022-12-18T01:50:36;-3.70;99.90
57108;DHT22;42987;52.916;6.542;2022-12-18T01:53:17;-3.70;99.90
57108;DHT22;42987;52.916;6.542;2022-12-18T01:55:50;-3.70;99.90
57108;DHT22;42987;52.916;6.542;2022-12-18T01:58:18;-3.80;99.90
57108;DHT22;42987;52.916;6.542;2022-12-18T02:00:45;-3.80;99.90
57108;DHT22;42987;52.916;6.542;2022-12-18T02:03:10;-3.80;99.90
57108;DHT22;42987;52.916;6.542;2022-12-18T02:06:00;-3.80;99.90
57108;DHT22;42987;52.916;6.542;2022-12-18T02:08:50;-3.80;99.90
57108;DHT22;42987;52.916;6.542;2022-12-18T02:16:44;-3.90;99.90
57108;DHT22;42987;52.916;6.542;2022-12-18T02:19:41;-3.90;99.90
57108;DHT22;42987;52.916;6.542;2022-12-18T02:22:49;-3.90;99.90
57108;DHT22;42987;52.916;6.542;2022-12-18T02:28:02;-4.00;99.90
57108;DHT22;42987;52.916;6.542;2022-12-18T02:30:32;-3.90;99.90
57108;DHT22;42987;52.916;6.542;2022-12-18T02:33:01;-4.10;99.90
57108;DHT22;42987;52.916;6.542;2022-12-18T02:35:30;-4.10;99.90
57108;DHT22;42987;52.916;6.542;2022-12-18T02:37:57;-4.20;99.90
57108;DHT22;42987;52.916;6.542;2022-12-18T02:40:27;-4.20;99.90
57108;DHT22;42987;52.916;6.542;2022-12-18T02:43:06;-4.30;99.90
57108;DHT22;42987;52.916;6.542;2022-12-18T02:45:32;-4.30;99.90
57108;DHT22;42987;52.916;6.542;2022-12-18T02:47:58;-4.30;99.90
57108;DHT22;42987;52.916;6.542;2022-12-18T02:50:38;-4.40;99.90
57108;DHT22;42987;52.916;6.542;2022-12-18T02:53:27;-4.30;99.90
57108;DHT22;42987;52.916;6.542;2022-12-18T02:56:17;-4.40;99.90
57108;DHT22;42987;52.916;6.542;2022-12-18T03:01:38;-4.50;99.90
57108;DHT22;42987;52.916;6.542;2022-12-18T03:04:29;-4.50;99.90
57108;DHT22;42987;52.916;6.542;2022-12-18T03:07:04;-4.50;99.90
57108;DHT22;42987;52.916;6.542;2022-12-18T03:09:34;-4.50;99.90
57108;DHT22;42987;52.916;6.542;2022-12-18T03:12:23;-4.60;99.90
57108;DHT22;42987;52.916;6.542;2022-12-18T03:17:27;-4.70;99.90
57108;DHT22;42987;52.916;6.542;2022-12-18T03:20:05;-4.70;99.90
57108;DHT22;42987;52.916;6.542;2022-12-18T03:22:34;-4.70;99.90
57108;DHT22;42987;52.916;6.542;2022-12-18T03:25:03;-4.70;99.90
57108;DHT22;42987;52.916;6.542;2022-12-18T03:27:31;-4.80;99.90
57108;DHT22;42987;52.916;6.542;2022-12-18T03:30:03;-4.80;99.90
57108;DHT22;42987;52.916;6.542;2022-12-18T03:35:33;-4.80;99.90
57108;DHT22;42987;52.916;6.542;2022-12-18T03:38:00;-4.80;99.90
57108;DHT22;42987;52.916;6.542;2022-12-18T03:43:11;-4.90;99.90
57108;DHT22;42987;52.916;6.542;2022-12-18T03:45:51;-4.90;99.90
57108;DHT22;42987;52.916;6.542;2022-12-18T03:48:50;-4.90;99.90
57108;DHT22;42987;52.916;6.542;2022-12-18T03:51:20;-5.00;99.90
57108;DHT22;42987;52.916;6.542;2022-12-18T03:54:02;-5.00;99.90
57108;DHT22;42987;52.916;6.542;2022-12-18T03:56:33;-5.00;99.90
57108;DHT22;42987;52.916;6.542;2022-12-18T03:59:01;-5.10;99.90
57108;DHT22;42987;52.916;6.542;2022-12-18T04:01:32;-5.10;99.90
57108;DHT22;42987;52.916;6.542;2022-12-18T04:04:03;-5.10;99.90
57108;DHT22;42987;52.916;6.542;2022-12-18T04:06:30;-5.10;99.90
57108;DHT22;42987;52.916;6.542;2022-12-18T04:09:01;-5.10;99.90
57108;DHT22;42987;52.916;6.542;2022-12-18T04:11:27;-5.10;99.90
57108;DHT22;42987;52.916;6.542;2022-12-18T04:13:56;-5.20;99.90
57108;DHT22;42987;52.916;6.542;2022-12-18T04:16:23;-5.20;99.90
57108;DHT22;42987;52.916;6.542;2022-12-18T04:18:49;-5.20;99.90
57108;DHT22;42987;52.916;6.542;2022-12-18T04:21:15;-5.20;99.90
57108;DHT22;42987;52.916;6.542;2022-12-18T04:23:43;-5.20;99.90
57108;DHT22;42987;52.916;6.542;2022-12-18T04:26:09;-5.20;99.90
57108;DHT22;42987;52.916;6.542;2022-12-18T04:28:34;-5.20;99.90
57108;DHT22;42987;52.916;6.542;2022-12-18T04:31:00;-5.20;99.90
57108;DHT22;42987;52.916;6.542;2022-12-18T04:33:26;-5.30;99.90
57108;DHT22;42987;52.916;6.542;2022-12-18T04:35:52;-5.20;99.90
57108;DHT22;42987;52.916;6.542;2022-12-18T04:38:20;-5.30;99.90
57108;DHT22;42987;52.916;6.542;2022-12-18T04:40:46;-5.20;99.90
57108;DHT22;42987;52.916;6.542;2022-12-18T04:43:12;-5.20;99.90
57108;DHT22;42987;52.916;6.542;2022-12-18T04:45:37;-5.30;99.90
57108;DHT22;42987;52.916;6.542;2022-12-18T04:48:04;-5.30;99.90
57108;DHT22;42987;52.916;6.542;2022-12-18T04:50:30;-5.30;99.90
57108;DHT22;42987;52.916;6.542;2022-12-18T04:52:56;-5.30;99.90
57108;DHT22;42987;52.916;6.542;2022-12-18T04:55:22;-5.30;99.90
57108;DHT22;42987;52.916;6.542;2022-12-18T04:57:49;-5.30;99.90
57108;DHT22;42987;52.916;6.542;2022-12-18T05:00:15;-5.30;99.90
57108;DHT22;42987;52.916;6.542;2022-12-18T05:02:41;-5.30;99.90
57108;DHT22;42987;52.916;6.542;2022-12-18T05:05:07;-5.30;99.90
57108;DHT22;42987;52.916;6.542;2022-12-18T05:07:33;-5.30;99.90
57108;DHT22;42987;52.916;6.542;2022-12-18T05:09:58;-5.30;99.90
57108;DHT22;42987;52.916;6.542;2022-12-18T05:12:24;-5.30;99.90
57108;DHT22;42987;52.916;6.542;2022-12-18T05:14:50;-5.30;99.90
57108;DHT22;42987;52.916;6.542;2022-12-18T05:17:16;-5.40;99.90
57108;DHT22;42987;52.916;6.542;2022-12-18T05:19:42;-5.40;99.90
57108;DHT22;42987;52.916;6.542;2022-12-18T05:22:08;-5.40;99.90
57108;DHT22;42987;52.916;6.542;2022-12-18T05:24:34;-5.40;99.90
57108;DHT22;42987;52.916;6.542;2022-12-18T05:27:00;-5.40;99.90
57108;DHT22;42987;52.916;6.542;2022-12-18T05:29:25;-5.40;99.90
57108;DHT22;42987;52.916;6.542;2022-12-18T05:31:51;-5.40;99.90
57108;DHT22;42987;52.916;6.542;2022-12-18T05:34:17;-5.40;99.90
57108;DHT22;42987;52.916;6.542;2022-12-18T05:36:43;-5.40;99.90
57108;DHT22;42987;52.916;6.542;2022-12-18T05:39:09;-5.40;99.90
57108;DHT22;42987;52.916;6.542;2022-12-18T05:41:34;-5.40;99.90
57108;DHT22;42987;52.916;6.542;2022-12-18T05:44:00;-5.40;99.90
57108;DHT22;42987;52.916;6.542;2022-12-18T05:46:26;-5.40;99.90
57108;DHT22;42987;52.916;6.542;2022-12-18T05:48:52;-5.40;99.90
57108;DHT22;42987;52.916;6.542;2022-12-18T05:51:19;-5.40;99.90
57108;DHT22;42987;52.916;6.542;2022-12-18T05:53:46;-5.40;99.90
57108;DHT22;42987;52.916;6.542;2022-12-18T05:56:15;-5.50;99.90
57108;DHT22;42987;52.916;6.542;2022-12-18T05:58:41;-5.50;99.90
57108;DHT22;42987;52.916;6.542;2022-12-18T06:01:22;-5.50;99.90
57108;DHT22;42987;52.916;6.542;2022-12-18T06:03:48;-5.50;99.90
57108;DHT22;42987;52.916;6.542;2022-12-18T06:06:26;-5.50;99.90
57108;DHT22;42987;52.916;6.542;2022-12-18T06:08:53;-5.50;99.90
57108;DHT22;42987;52.916;6.542;2022-12-18T06:11:22;-5.50;99.90
57108;DHT22;42987;52.916;6.542;2022-12-18T06:13:55;-5.50;99.90
57108;DHT22;42987;52.916;6.542;2022-12-18T06:16:21;-5.50;99.90
57108;DHT22;42987;52.916;6.542;2022-12-18T06:18:47;-5.50;99.90
57108;DHT22;42987;52.916;6.542;2022-12-18T06:21:13;-5.50;99.90
57108;DHT22;42987;52.916;6.542;2022-12-18T06:23:38;-5.50;99.90
57108;DHT22;42987;52.916;6.542;2022-12-18T06:26:09;-5.50;99.90
57108;DHT22;42987;52.916;6.542;2022-12-18T06:28:37;-5.50;99.90
57108;DHT22;42987;52.916;6.542;2022-12-18T06:31:04;-5.60;99.90
57108;DHT22;42987;52.916;6.542;2022-12-18T06:33:30;-5.60;99.90
57108;DHT22;42987;52.916;6.542;2022-12-18T06:36:11;-5.60;99.90
57108;DHT22;42987;52.916;6.542;2022-12-18T06:38:41;-5.60;99.90
57108;DHT22;42987;52.916;6.542;2022-12-18T06:41:15;-5.60;99.90
57108;DHT22;42987;52.916;6.542;2022-12-18T06:43:41;-5.60;99.90
57108;DHT22;42987;52.916;6.542;2022-12-18T06:46:07;-5.70;99.90
57108;DHT22;42987;52.916;6.542;2022-12-18T06:48:34;-5.70;99.90
57108;DHT22;42987;52.916;6.542;2022-12-18T06:51:00;-5.80;99.90
57108;DHT22;42987;52.916;6.542;2022-12-18T06:53:26;-5.70;99.90
57108;DHT22;42987;52.916;6.542;2022-12-18T06:55:52;-5.70;99.90
57108;DHT22;42987;52.916;6.542;2022-12-18T06:58:17;-5.70;99.90
57108;DHT22;42987;52.916;6.542;2022-12-18T07:00:44;-5.70;99.90
57108;DHT22;42987;52.916;6.542;2022-12-18T07:03:10;-5.70;99.90
57108;DHT22;42987;52.916;6.542;2022-12-18T07:05:40;-5.70;99.90
57108;DHT22;42987;52.916;6.542;2022-12-18T07:08:06;-5.70;99.90
57108;DHT22;42987;52.916;6.542;2022-12-18T07:10:32;-5.80;99.90
57108;DHT22;42987;52.916;6.542;2022-12-18T07:12:57;-5.80;99.90
57108;DHT22;42987;52.916;6.542;2022-12-18T07:15:23;-5.90;99.90
57108;DHT22;42987;52.916;6.542;2022-12-18T07:17:49;-5.90;99.90
57108;DHT22;42987;52.916;6.542;2022-12-18T07:20:15;-6.00;99.90
57108;DHT22;42987;52.916;6.542;2022-12-18T07:22:41;-6.00;99.90
57108;DHT22;42987;52.916;6.542;2022-12-18T07:25:07;-6.00;99.90
57108;DHT22;42987;52.916;6.542;2022-12-18T07:27:34;-6.10;99.90
57108;DHT22;42987;52.916;6.542;2022-12-18T07:29:59;-6.10;99.90
57108;DHT22;42987;52.916;6.542;2022-12-18T07:32:25;-6.10;99.90
57108;DHT22;42987;52.916;6.542;2022-12-18T07:34:51;-6.10;99.90
57108;DHT22;42987;52.916;6.542;2022-12-18T07:37:16;-6.10;99.90
57108;DHT22;42987;52.916;6.542;2022-12-18T07:39:42;-6.20;99.90
57108;DHT22;42987;52.916;6.542;2022-12-18T07:42:08;-6.10;99.90
57108;DHT22;42987;52.916;6.542;2022-12-18T07:44:52;-6.10;99.90
57108;DHT22;42987;52.916;6.542;2022-12-18T07:47:19;-6.10;99.90
57108;DHT22;42987;52.916;6.542;2022-12-18T07:49:48;-6.10;99.90
57108;DHT22;42987;52.916;6.542;2022-12-18T07:52:14;-6.10;99.90
57108;DHT22;42987;52.916;6.542;2022-12-18T07:54:40;-6.00;99.90
57108;DHT22;42987;52.916;6.542;2022-12-18T07:57:06;-6.00;99.90
57108;DHT22;42987;52.916;6.542;2022-12-18T07:59:32;-6.00;99.90
57108;DHT22;42987;52.916;6.542;2022-12-18T08:01:58;-6.00;99.90
57108;DHT22;42987;52.916;6.542;2022-12-18T08:04:24;-5.90;99.90
57108;DHT22;42987;52.916;6.542;2022-12-18T08:06:50;-6.00;99.90
57108;DHT22;42987;52.916;6.542;2022-12-18T08:09:16;-5.90;99.90
57108;DHT22;42987;52.916;6.542;2022-12-18T08:11:42;-5.90;99.90
57108;DHT22;42987;52.916;6.542;2022-12-18T08:14:08;-5.90;99.90
57108;DHT22;42987;52.916;6.542;2022-12-18T08:16:34;-5.90;99.90
57108;DHT22;42987;52.916;6.542;2022-12-18T08:19:00;-5.80;99.90
57108;DHT22;42987;52.916;6.542;2022-12-18T08:21:28;-5.90;99.90
57108;DHT22;42987;52.916;6.542;2022-12-18T08:23:56;-5.80;99.90
57108;DHT22;42987;52.916;6.542;2022-12-18T08:26:24;-5.80;99.90
57108;DHT22;42987;52.916;6.542;2022-12-18T08:28:51;-5.80;99.90
57108;DHT22;42987;52.916;6.542;2022-12-18T08:31:18;-5.70;99.90
57108;DHT22;42987;52.916;6.542;2022-12-18T08:33:44;-5.70;99.90
57108;DHT22;42987;52.916;6.542;2022-12-18T08:36:10;-5.60;99.90
57108;DHT22;42987;52.916;6.542;2022-12-18T08:38:35;-5.60;99.90
57108;DHT22;42987;52.916;6.542;2022-12-18T08:41:09;-5.50;99.90
57108;DHT22;42987;52.916;6.542;2022-12-18T08:43:35;-5.50;99.90
57108;DHT22;42987;52.916;6.542;2022-12-18T08:46:22;-5.40;99.90
57108;DHT22;42987;52.916;6.542;2022-12-18T08:48:49;-5.40;99.90
57108;DHT22;42987;52.916;6.542;2022-12-18T08:51:16;-5.30;99.90
57108;DHT22;42987;52.916;6.542;2022-12-18T08:53:43;-5.20;99.90
57108;DHT22;42987;52.916;6.542;2022-12-18T08:56:10;-5.20;99.90
57108;DHT22;42987;52.916;6.542;2022-12-18T08:58:36;-5.20;99.90
57108;DHT22;42987;52.916;6.542;2022-12-18T09:01:07;-5.10;99.90
57108;DHT22;42987;52.916;6.542;2022-12-18T09:03:37;-5.10;99.90
57108;DHT22;42987;52.916;6.542;2022-12-18T09:06:03;-5.00;99.90
57108;DHT22;42987;52.916;6.542;2022-12-18T09:08:29;-5.00;99.90
57108;DHT22;42987;52.916;6.542;2022-12-18T09:10:55;-4.90;99.90
57108;DHT22;42987;52.916;6.542;2022-12-18T09:13:21;-4.90;99.90
57108;DHT22;42987;52.916;6.542;2022-12-18T09:15:55;-4.80;99.90
57108;DHT22;42987;52.916;6.542;2022-12-18T09:18:23;-4.70;99.90
57108;DHT22;42987;52.916;6.542;2022-12-18T09:20:52;-4.70;99.90
57108;DHT22;42987;52.916;6.542;2022-12-18T09:23:18;-4.60;99.90
57108;DHT22;42987;52.916;6.542;2022-12-18T09:25:44;-4.60;99.90
57108;DHT22;42987;52.916;6.542;2022-12-18T09:28:12;-4.50;99.90
57108;DHT22;42987;52.916;6.542;2022-12-18T09:30:43;-4.50;99.90
57108;DHT22;42987;52.916;6.542;2022-12-18T09:33:10;-4.40;99.90
57108;DHT22;42987;52.916;6.542;2022-12-18T09:35:37;-4.30;99.90
57108;DHT22;42987;52.916;6.542;2022-12-18T09:38:04;-4.20;99.90
57108;DHT22;42987;52.916;6.542;2022-12-18T09:40:39;-4.10;99.90
57108;DHT22;42987;52.916;6.542;2022-12-18T09:43:07;-4.10;99.90
57108;DHT22;42987;52.916;6.542;2022-12-18T09:45:43;-4.00;99.90
57108;DHT22;42987;52.916;6.542;2022-12-18T09:48:27;-3.90;99.90
57108;DHT22;42987;52.916;6.542;2022-12-18T09:50:58;-3.70;99.90
57108;DHT22;42987;52.916;6.542;2022-12-18T09:53:28;-3.60;99.90
57108;DHT22;42987;52.916;6.542;2022-12-18T09:55:56;-3.60;99.90
57108;DHT22;42987;52.916;6.542;2022-12-18T09:58:39;-3.50;99.90
57108;DHT22;42987;52.916;6.542;2022-12-18T10:01:12;-3.40;99.90
57108;DHT22;42987;52.916;6.542;2022-12-18T10:03:40;-3.40;99.90
57108;DHT22;42987;52.916;6.542;2022-12-18T10:06:17;-3.30;99.90
57108;DHT22;42987;52.916;6.542;2022-12-18T10:09:09;-3.20;99.90
57108;DHT22;42987;52.916;6.542;2022-12-18T10:25:09;-2.80;99.90
57108;DHT22;42987;52.916;6.542;2022-12-18T10:27:39;-2.80;99.90
57108;DHT22;42987;52.916;6.542;2022-12-18T10:30:21;-2.80;99.90
57108;DHT22;42987;52.916;6.542;2022-12-18T10:32:48;-2.80;99.90
57108;DHT22;42987;52.916;6.542;2022-12-18T10:35:20;-2.80;99.90
57108;DHT22;42987;52.916;6.542;2022-12-18T10:38:05;-2.80;99.90
57108;DHT22;42987;52.916;6.542;2022-12-18T10:40:32;-2.70;99.90
57108;DHT22;42987;52.916;6.542;2022-12-18T10:43:13;-2.70;99.90
57108;DHT22;42987;52.916;6.542;2022-12-18T10:45:40;-2.60;99.90
57108;DHT22;42987;52.916;6.542;2022-12-18T10:48:22;-2.50;99.90
57108;DHT22;42987;52.916;6.542;2022-12-18T10:50:50;-2.40;99.90
57108;DHT22;42987;52.916;6.542;2022-12-18T10:53:28;-2.40;99.90
57108;DHT22;42987;52.916;6.542;2022-12-18T10:55:57;-2.40;99.90
57108;DHT22;42987;52.916;6.542;2022-12-18T10:58:38;-2.30;99.90
57108;DHT22;42987;52.916;6.542;2022-12-18T11:01:07;-2.20;99.90
57108;DHT22;42987;52.916;6.542;2022-12-18T11:06:14;-2.20;99.90
57108;DHT22;42987;52.916;6.542;2022-12-18T11:08:42;-2.10;99.90
57108;DHT22;42987;52.916;6.542;2022-12-18T11:11:28;-2.10;99.90
57108;DHT22;42987;52.916;6.542;2022-12-18T11:16:25;-2.00;99.90
57108;DHT22;42987;52.916;6.542;2022-12-18T11:18:51;-2.00;99.90
57108;DHT22;42987;52.916;6.542;2022-12-18T11:21:17;-2.00;99.90
57108;DHT22;42987;52.916;6.542;2022-12-18T11:23:54;-1.90;99.90
57108;DHT22;42987;52.916;6.542;2022-12-18T11:26:20;-1.80;99.90
57108;DHT22;42987;52.916;6.542;2022-12-18T11:28:50;-1.70;99.90
57108;DHT22;42987;52.916;6.542;2022-12-18T11:31:26;-1.70;99.90
57108;DHT22;42987;52.916;6.542;2022-12-18T11:36:36;-1.60;99.90
57108;DHT22;42987;52.916;6.542;2022-12-18T11:39:18;-1.60;99.90
57108;DHT22;42987;52.916;6.542;2022-12-18T11:41:57;-1.60;99.90
57108;DHT22;42987;52.916;6.542;2022-12-18T11:44:45;-1.50;99.90
57108;DHT22;42987;52.916;6.542;2022-12-18T11:49:39;-1.40;99.90
57108;DHT22;42987;52.916;6.542;2022-12-18T11:52:14;-1.40;99.90
57108;DHT22;42987;52.916;6.542;2022-12-18T11:54:41;-1.40;99.90
57108;DHT22;42987;52.916;6.542;2022-12-18T12:00:02;-1.30;99.90
57108;DHT22;42987;52.916;6.542;2022-12-18T12:14:03;-1.10;99.90
57108;DHT22;42987;52.916;6.542;2022-12-18T12:16:47;-1.10;99.90
57108;DHT22;42987;52.916;6.542;2022-12-18T12:19:48;-1.00;99.90
57108;DHT22;42987;52.916;6.542;2022-12-18T12:30:59;-0.90;99.90
57108;DHT22;42987;52.916;6.542;2022-12-18T12:39:15;-0.80;99.90
57108;DHT22;42987;52.916;6.542;2022-12-18T12:41:45;-0.80;99.90
57108;DHT22;42987;52.916;6.542;2022-12-18T12:44:44;-0.80;99.90
57108;DHT22;42987;52.916;6.542;2022-12-18T12:47:16;-0.70;99.90
57108;DHT22;42987;52.916;6.542;2022-12-18T12:49:44;-0.70;99.90
57108;DHT22;42987;52.916;6.542;2022-12-18T12:52:27;-0.70;99.90
57108;DHT22;42987;52.916;6.542;2022-12-18T12:54:54;-0.60;99.90
57108;DHT22;42987;52.916;6.542;2022-12-18T12:57:32;-0.60;99.90
57108;DHT22;42987;52.916;6.542;2022-12-18T13:00:07;-0.60;99.90
57108;DHT22;42987;52.916;6.542;2022-12-18T13:02:55;-0.60;99.90
57108;DHT22;42987;52.916;6.542;2022-12-18T13:05:42;-0.60;99.90
57108;DHT22;42987;52.916;6.542;2022-12-18T13:08:11;-0.50;99.90
57108;DHT22;42987;52.916;6.542;2022-12-18T13:10:47;-0.50;99.90
57108;DHT22;42987;52.916;6.542;2022-12-18T13:13:14;-0.50;99.90
57108;DHT22;42987;52.916;6.542;2022-12-18T13:18:21;-0.50;99.90
57108;DHT22;42987;52.916;6.542;2022-12-18T13:21:04;-0.50;99.90
57108;DHT22;42987;52.916;6.542;2022-12-18T13:23:35;-0.50;99.90
57108;DHT22;42987;52.916;6.542;2022-12-18T13:31:02;-0.50;99.90
57108;DHT22;42987;52.916;6.542;2022-12-18T13:36:25;-0.40;99.90
57108;DHT22;42987;52.916;6.542;2022-12-18T13:41:44;-0.40;99.90
57108;DHT22;42987;52.916;6.542;2022-12-18T13:46:50;-0.40;99.90
57108;DHT22;42987;52.916;6.542;2022-12-18T13:52:01;-0.40;99.90
57108;DHT22;42987;52.916;6.542;2022-12-18T13:54:35;-0.50;99.90
57108;DHT22;42987;52.916;6.542;2022-12-18T13:57:01;-0.40;99.90
57108;DHT22;42987;52.916;6.542;2022-12-18T13:59:36;-0.50;99.90
57108;DHT22;42987;52.916;6.542;2022-12-18T14:02:16;-0.40;99.90
57108;DHT22;42987;52.916;6.542;2022-12-18T14:04:45;-0.50;99.90
57108;DHT22;42987;52.916;6.542;2022-12-18T14:07:18;-0.40;99.90
57108;DHT22;42987;52.916;6.542;2022-12-18T14:09:47;-0.50;99.90
57108;DHT22;42987;52.916;6.542;2022-12-18T14:12:24;-0.50;99.90
57108;DHT22;42987;52.916;6.542;2022-12-18T14:17:57;-0.50;99.90
57108;DHT22;42987;52.916;6.542;2022-12-18T14:20:29;-0.60;99.90
57108;DHT22;42987;52.916;6.542;2022-12-18T14:22:57;-0.60;99.90
57108;DHT22;42987;52.916;6.542;2022-12-18T14:25:25;-0.60;99.90
57108;DHT22;42987;52.916;6.542;2022-12-18T14:28:02;-0.60;99.90
57108;DHT22;42987;52.916;6.542;2022-12-18T14:30:32;-0.60;99.90
57108;DHT22;42987;52.916;6.542;2022-12-18T14:35:39;-0.60;99.90
57108;DHT22;42987;52.916;6.542;2022-12-18T14:38:22;-0.70;99.90
57108;DHT22;42987;52.916;6.542;2022-12-18T14:40:56;-0.70;99.90
57108;DHT22;42987;52.916;6.542;2022-12-18T14:43:22;-0.70;99.90
57108;DHT22;42987;52.916;6.542;2022-12-18T14:45:49;-0.70;99.90
57108;DHT22;42987;52.916;6.542;2022-12-18T14:48:21;-0.70;99.90
57108;DHT22;42987;52.916;6.542;2022-12-18T14:51:05;-0.80;99.90
57108;DHT22;42987;52.916;6.542;2022-12-18T14:53:39;-0.80;99.90
57108;DHT22;42987;52.916;6.542;2022-12-18T14:56:19;-0.80;99.90
57108;DHT22;42987;52.916;6.542;2022-12-18T14:58:48;-0.80;99.90
57108;DHT22;42987;52.916;6.542;2022-12-18T15:01:23;-0.80;99.90
57108;DHT22;42987;52.916;6.542;2022-12-18T15:03:51;-0.90;99.90
57108;DHT22;42987;52.916;6.542;2022-12-18T15:06:35;-0.90;99.90
57108;DHT22;42987;52.916;6.542;2022-12-18T15:09:04;-0.90;99.90
57108;DHT22;42987;52.916;6.542;2022-12-18T15:14:30;-1.00;99.90
57108;DHT22;42987;52.916;6.542;2022-12-18T15:17:03;-0.90;99.90
57108;DHT22;42987;52.916;6.542;2022-12-18T15:19:40;-1.00;99.90
57108;DHT22;42987;52.916;6.542;2022-12-18T15:22:35;-1.00;99.90
57108;DHT22;42987;52.916;6.542;2022-12-18T15:25:03;-1.00;99.90
57108;DHT22;42987;52.916;6.542;2022-12-18T15:27:46;-1.00;99.90
57108;DHT22;42987;52.916;6.542;2022-12-18T15:30:18;-1.00;99.90
57108;DHT22;42987;52.916;6.542;2022-12-18T15:32:44;-1.00;99.90
57108;DHT22;42987;52.916;6.542;2022-12-18T15:37:37;-1.00;99.90
57108;DHT22;42987;52.916;6.542;2022-12-18T15:40:05;-1.00;99.90
57108;DHT22;42987;52.916;6.542;2022-12-18T15:42:31;-1.00;99.90
57108;DHT22;42987;52.916;6.542;2022-12-18T15:45:16;-1.00;99.90
57108;DHT22;42987;52.916;6.542;2022-12-18T15:47:41;-1.00;99.90
57108;DHT22;42987;52.916;6.542;2022-12-18T15:50:10;-1.00;99.90
57108;DHT22;42987;52.916;6.542;2022-12-18T15:52:44;-1.00;99.90
57108;DHT22;42987;52.916;6.542;2022-12-18T15:55:14;-1.00;99.90
57108;DHT22;42987;52.916;6.542;2022-12-18T15:57:59;-1.00;99.90
57108;DHT22;42987;52.916;6.542;2022-12-18T16:00:28;-1.00;99.90
57108;DHT22;42987;52.916;6.542;2022-12-18T16:02:54;-1.00;99.90
57108;DHT22;42987;52.916;6.542;2022-12-18T16:05:24;-1.00;99.90
57108;DHT22;42987;52.916;6.542;2022-12-18T16:07:50;-1.00;99.90
57108;DHT22;42987;52.916;6.542;2022-12-18T16:10:15;-1.00;99.90
57108;DHT22;42987;52.916;6.542;2022-12-18T16:12:42;-1.10;99.90
57108;DHT22;42987;52.916;6.542;2022-12-18T16:15:11;-1.00;99.90
57108;DHT22;42987;52.916;6.542;2022-12-18T16:17:39;-1.00;99.90
57108;DHT22;42987;52.916;6.542;2022-12-18T16:20:12;-1.00;99.90
57108;DHT22;42987;52.916;6.542;2022-12-18T16:22:38;-0.90;99.90
57108;DHT22;42987;52.916;6.542;2022-12-18T16:25:04;-0.90;99.90
57108;DHT22;42987;52.916;6.542;2022-12-18T16:27:31;-1.00;99.90
57108;DHT22;42987;52.916;6.542;2022-12-18T16:29:57;-0.90;99.90
57108;DHT22;42987;52.916;6.542;2022-12-18T16:32:22;-0.90;99.90
57108;DHT22;42987;52.916;6.542;2022-12-18T16:34:49;-0.90;99.90
57108;DHT22;42987;52.916;6.542;2022-12-18T16:37:15;-0.90;99.90
57108;DHT22;42987;52.916;6.542;2022-12-18T16:39:41;-0.90;99.90
57108;DHT22;42987;52.916;6.542;2022-12-18T16:42:18;-0.90;99.90
57108;DHT22;42987;52.916;6.542;2022-12-18T16:44:45;-0.90;99.90
57108;DHT22;42987;52.916;6.542;2022-12-18T16:47:12;-0.90;99.90
57108;DHT22;42987;52.916;6.542;2022-12-18T16:49:38;-0.90;99.90
57108;DHT22;42987;52.916;6.542;2022-12-18T16:52:05;-0.90;99.90
57108;DHT22;42987;52.916;6.542;2022-12-18T16:54:31;-0.90;99.90
57108;DHT22;42987;52.916;6.542;2022-12-18T16:56:59;-0.90;99.90
57108;DHT22;42987;52.916;6.542;2022-12-18T16:59:26;-0.90;99.90
57108;DHT22;42987;52.916;6.542;2022-12-18T17:01:52;-0.90;99.90
57108;DHT22;42987;52.916;6.542;2022-12-18T17:04:18;-0.90;99.90
57108;DHT22;42987;52.916;6.542;2022-12-18T17:06:44;-0.90;99.90
57108;DHT22;42987;52.916;6.542;2022-12-18T17:09:16;-0.90;99.90
57108;DHT22;42987;52.916;6.542;2022-12-18T17:11:42;-0.90;99.90
57108;DHT22;42987;52.916;6.542;2022-12-18T17:14:12;-0.90;99.90
57108;DHT22;42987;52.916;6.542;2022-12-18T17:16:38;-0.80;99.90
57108;DHT22;42987;52.916;6.542;2022-12-18T17:19:04;-0.90;99.90
57108;DHT22;42987;52.916;6.542;2022-12-18T17:21:30;-0.90;99.90
57108;DHT22;42987;52.916;6.542;2022-12-18T17:23:59;-0.80;99.90
57108;DHT22;42987;52.916;6.542;2022-12-18T17:26:25;-0.80;99.90
57108;DHT22;42987;52.916;6.542;2022-12-18T17:28:51;-0.80;99.90
57108;DHT22;42987;52.916;6.542;2022-12-18T17:31:19;-0.80;99.90